sensor_id;sensor_type;location;lat;lon;timestamp;pressure;altitude;pressure_sealevel;temperature;humidity
66668;BME280;57205;51.438;-2.006;2023-04-30T00:02:07;101486.53;;;10.25;100.00
66668;BME280;57205;51.438;-2.006;2023-04-30T00:04:33;101487.56;;;10.24;100.00
66668;BME280;57205;51.438;-2.006;2023-04-30T00:06:58;101488.38;;;10.24;100.00
66668;BME280;57205;51.438;-2.006;2023-04-30T00:09:25;101483.28;;;10.23;100.00
66668;BME280;57205;51.438;-2.006;2023-04-30T00:11:50;101479.00;;;10.22;100.00
66668;BME280;57205;51.438;-2.006;2023-04-30T00:14:16;101478.09;;;10.16;100.00
66668;BME280;57205;51.438;-2.006;2023-04-30T00:16:41;101467.53;;;10.10;100.00
66668;BME280;57205;51.438;-2.006;2023-04-30T00:19:07;101472.06;;;10.09;100.00
66668;BME280;57205;51.438;-2.006;2023-04-30T00:21:33;101465.31;;;10.07;100.00
66668;BME280;57205;51.438;-2.006;2023-04-30T00:23:58;101462.31;;;10.03;100.00
66668;BME280;57205;51.438;-2.006;2023-04-30T00:26:27;101463.28;;;9.97;100.00
66668;BME280;57205;51.438;-2.006;2023-04-30T00:28:52;101464.09;;;9.98;100.00
66668;BME280;57205;51.438;-2.006;2023-04-30T00:31:17;101460.03;;;9.95;100.00
66668;BME280;57205;51.438;-2.006;2023-04-30T00:33:43;101457.47;;;9.88;100.00
66668;BME280;57205;51.438;-2.006;2023-04-30T00:36:08;101455.88;;;9.88;100.00
66668;BME280;57205;51.438;-2.006;2023-04-30T00:38:34;101451.56;;;9.86;100.00
66668;BME280;57205;51.438;-2.006;2023-04-30T00:41:00;101454.03;;;9.88;100.00
66668;BME280;57205;51.438;-2.006;2023-04-30T00:43:25;101459.38;;;9.88;100.00
66668;BME280;57205;51.438;-2.006;2023-04-30T00:45:51;101457.84;;;9.92;100.00
66668;BME280;57205;51.438;-2.006;2023-04-30T00:48:17;101452.50;;;9.92;100.00
66668;BME280;57205;51.438;-2.006;2023-04-30T00:50:44;101453.03;;;9.94;100.00
66668;BME280;57205;51.438;-2.006;2023-04-30T00:53:11;101453.53;;;9.91;100.00
66668;BME280;57205;51.438;-2.006;2023-04-30T00:55:38;101455.72;;;9.94;100.00
66668;BME280;57205;51.438;-2.006;2023-04-30T00:58:04;101449.91;;;9.97;100.00
66668;BME280;57205;51.438;-2.006;2023-04-30T01:00:30;101448.84;;;9.98;100.00
66668;BME280;57205;51.438;-2.006;2023-04-30T01:02:56;101449.41;;;10.00;100.00
66668;BME280;57205;51.438;-2.006;2023-04-30T01:05:22;101454.19;;;9.98;100.00
66668;BME280;57205;51.438;-2.006;2023-04-30T01:07:48;101457.44;;;10.00;100.00
66668;BME280;57205;51.438;-2.006;2023-04-30T01:10:14;101445.13;;;9.99;100.00
66668;BME280;57205;51.438;-2.006;2023-04-30T01:12:51;101449.09;;;9.97;100.00
66668;BME280;57205;51.438;-2.006;2023-04-30T01:15:36;101445.59;;;9.96;100.00
66668;BME280;57205;51.438;-2.006;2023-04-30T01:18:33;101444.06;;;10.00;100.00
66668;BME280;57205;51.438;-2.006;2023-04-30T01:21:03;101432.00;;;9.98;100.00
66668;BME280;57205;51.438;-2.006;2023-04-30T01:26:19;101445.84;;;9.95;100.00
66668;BME280;57205;51.438;-2.006;2023-04-30T01:28:49;101438.31;;;9.92;100.00
66668;BME280;57205;51.438;-2.006;2023-04-30T01:31:17;101443.97;;;9.95;100.00
66668;BME280;57205;51.438;-2.006;2023-04-30T01:33:43;101440.97;;;9.92;100.00
66668;BME280;57205;51.438;-2.006;2023-04-30T01:44:23;101444.88;;;9.72;100.00
66668;BME280;57205;51.438;-2.006;2023-04-30T01:47:14;101441.88;;;9.69;100.00
66668;BME280;57205;51.438;-2.006;2023-04-30T01:52:58;101450.25;;;9.61;100.00
66668;BME280;57205;51.438;-2.006;2023-04-30T01:55:50;101452.59;;;9.57;100.00
66668;BME280;57205;51.438;-2.006;2023-04-30T01:58:21;101446.44;;;9.57;100.00
66668;BME280;57205;51.438;-2.006;2023-04-30T02:00:48;101443.91;;;9.50;100.00
66668;BME280;57205;51.438;-2.006;2023-04-30T02:03:13;101452.41;;;9.47;100.00
66668;BME280;57205;51.438;-2.006;2023-04-30T02:05:38;101452.03;;;9.44;100.00
66668;BME280;57205;51.438;-2.006;2023-04-30T02:08:04;101450.44;;;9.43;100.00
66668;BME280;57205;51.438;-2.006;2023-04-30T02:10:30;101450.91;;;9.40;100.00
66668;BME280;57205;51.438;-2.006;2023-04-30T02:12:55;101460.19;;;9.37;100.00
66668;BME280;57205;51.438;-2.006;2023-04-30T02:15:21;101455.34;;;9.34;100.00
66668;BME280;57205;51.438;-2.006;2023-04-30T02:17:46;101458.81;;;9.35;100.00
66668;BME280;57205;51.438;-2.006;2023-04-30T02:20:14;101452.78;;;9.28;100.00
66668;BME280;57205;51.438;-2.006;2023-04-30T02:22:40;101458.94;;;9.28;100.00
66668;BME280;57205;51.438;-2.006;2023-04-30T02:25:05;101465.22;;;9.22;100.00
66668;BME280;57205;51.438;-2.006;2023-04-30T02:27:32;101463.03;;;9.19;100.00
66668;BME280;57205;51.438;-2.006;2023-04-30T02:29:58;101463.72;;;9.15;100.00
66668;BME280;57205;51.438;-2.006;2023-04-30T02:32:24;101469.53;;;9.12;100.00
66668;BME280;57205;51.438;-2.006;2023-04-30T02:34:50;101471.63;;;9.10;100.00
66668;BME280;57205;51.438;-2.006;2023-04-30T02:37:15;101471.28;;;9.06;100.00
66668;BME280;57205;51.438;-2.006;2023-04-30T02:39:41;101470.94;;;9.03;100.00
66668;BME280;57205;51.438;-2.006;2023-04-30T02:42:07;101463.50;;;9.05;100.00
66668;BME280;57205;51.438;-2.006;2023-04-30T02:44:32;101459.91;;;8.99;100.00
66668;BME280;57205;51.438;-2.006;2023-04-30T02:46:58;101467.34;;;8.97;100.00
66668;BME280;57205;51.438;-2.006;2023-04-30T02:49:24;101463.50;;;8.93;100.00
66668;BME280;57205;51.438;-2.006;2023-04-30T02:51:50;101457.59;;;8.91;100.00
66668;BME280;57205;51.438;-2.006;2023-04-30T02:54:16;101461.53;;;8.88;100.00
66668;BME280;57205;51.438;-2.006;2023-04-30T02:56:41;101457.69;;;8.84;100.00
66668;BME280;57205;51.438;-2.006;2023-04-30T02:59:07;101452.81;;;8.81;100.00
66668;BME280;57205;51.438;-2.006;2023-04-30T03:01:33;101448.31;;;8.82;100.00
66668;BME280;57205;51.438;-2.006;2023-04-30T03:03:58;101454.31;;;8.77;100.00
66668;BME280;57205;51.438;-2.006;2023-04-30T03:06:24;101452.13;;;8.74;100.00
66668;BME280;57205;51.438;-2.006;2023-04-30T03:08:49;101452.94;;;8.75;100.00
66668;BME280;57205;51.438;-2.006;2023-04-30T03:11:15;101458.50;;;8.73;100.00
66668;BME280;57205;51.438;-2.006;2023-04-30T03:13:42;101453.63;;;8.70;100.00
66668;BME280;57205;51.438;-2.006;2023-04-30T03:16:07;101457.34;;;8.69;100.00
66668;BME280;57205;51.438;-2.006;2023-04-30T03:18:32;101448.97;;;8.66;100.00
66668;BME280;57205;51.438;-2.006;2023-04-30T03:20:58;101449.78;;;8.66;100.00
66668;BME280;57205;51.438;-2.006;2023-04-30T03:23:26;101450.63;;;8.67;100.00
66668;BME280;57205;51.438;-2.006;2023-04-30T03:25:52;101448.41;;;8.64;100.00
66668;BME280;57205;51.438;-2.006;2023-04-30T03:28:17;101455.59;;;8.63;100.00
66668;BME280;57205;51.438;-2.006;2023-04-30T03:30:43;101453.97;;;8.62;100.00
66668;BME280;57205;51.438;-2.006;2023-04-30T03:33:08;101448.88;;;8.61;100.00
66668;BME280;57205;51.438;-2.006;2023-04-30T03:35:34;101445.63;;;8.59;100.00
66668;BME280;57205;51.438;-2.006;2023-04-30T03:38:00;101439.47;;;8.58;100.00
66668;BME280;57205;51.438;-2.006;2023-04-30T03:40:25;101438.91;;;8.56;100.00
66668;BME280;57205;51.438;-2.006;2023-04-30T03:42:51;101442.94;;;8.59;100.00
66668;BME280;57205;51.438;-2.006;2023-04-30T03:45:19;101437.25;;;8.55;100.00
66668;BME280;57205;51.438;-2.006;2023-04-30T03:47:45;101439.69;;;8.57;100.00
66668;BME280;57205;51.438;-2.006;2023-04-30T03:50:11;101443.66;;;8.54;100.00
66668;BME280;57205;51.438;-2.006;2023-04-30T03:52:36;101433.00;;;8.54;100.00
66668;BME280;57205;51.438;-2.006;2023-04-30T03:55:02;101431.09;;;8.55;100.00
66668;BME280;57205;51.438;-2.006;2023-04-30T03:57:28;101430.31;;;8.54;100.00
66668;BME280;57205;51.438;-2.006;2023-04-30T03:59:54;101438.66;;;8.58;100.00
66668;BME280;57205;51.438;-2.006;2023-04-30T04:02:21;101442.13;;;8.58;100.00
66668;BME280;57205;51.438;-2.006;2023-04-30T04:04:47;101433.56;;;8.56;100.00
66668;BME280;57205;51.438;-2.006;2023-04-30T04:07:12;101435.28;;;8.62;100.00
66668;BME280;57205;51.438;-2.006;2023-04-30T04:09:39;101433.78;;;8.66;100.00
66668;BME280;57205;51.438;-2.006;2023-04-30T04:12:04;101440.19;;;8.65;100.00
66668;BME280;57205;51.438;-2.006;2023-04-30T04:14:30;101439.38;;;8.65;100.00
66668;BME280;57205;51.438;-2.006;2023-04-30T04:16:55;101433.78;;;8.66;100.00
66668;BME280;57205;51.438;-2.006;2023-04-30T04:19:22;101438.53;;;8.64;100.00
66668;BME280;57205;51.438;-2.006;2023-04-30T04:21:48;101434.25;;;8.63;100.00
66668;BME280;57205;51.438;-2.006;2023-04-30T04:24:13;101430.78;;;8.63;100.00
66668;BME280;57205;51.438;-2.006;2023-04-30T04:26:38;101425.22;;;8.64;100.00
66668;BME280;57205;51.438;-2.006;2023-04-30T04:29:04;101431.13;;;8.66;100.00
66668;BME280;57205;51.438;-2.006;2023-04-30T04:31:30;101429.28;;;8.67;100.00
66668;BME280;57205;51.438;-2.006;2023-04-30T04:33:58;101432.97;;;8.66;100.00
66668;BME280;57205;51.438;-2.006;2023-04-30T04:36:25;101430.53;;;8.64;100.00
66668;BME280;57205;51.438;-2.006;2023-04-30T04:38:53;101438.53;;;8.64;100.00
66668;BME280;57205;51.438;-2.006;2023-04-30T04:41:19;101431.59;;;8.63;100.00
66668;BME280;57205;51.438;-2.006;2023-04-30T04:43:45;101439.94;;;8.67;100.00
66668;BME280;57205;51.438;-2.006;2023-04-30T04:46:11;101427.19;;;8.69;100.00
66668;BME280;57205;51.438;-2.006;2023-04-30T04:48:36;101435.19;;;8.69;100.00
66668;BME280;57205;51.438;-2.006;2023-04-30T04:51:02;101424.28;;;8.70;100.00
66668;BME280;57205;51.438;-2.006;2023-04-30T04:53:27;101428.56;;;8.71;100.00
66668;BME280;57205;51.438;-2.006;2023-04-30T04:55:53;101434.81;;;8.77;100.00
66668;BME280;57205;51.438;-2.006;2023-04-30T04:58:18;101428.56;;;8.83;100.00
66668;BME280;57205;51.438;-2.006;2023-04-30T05:00:44;101425.47;;;8.86;100.00
66668;BME280;57205;51.438;-2.006;2023-04-30T05:03:09;101428.47;;;8.90;100.00
66668;BME280;57205;51.438;-2.006;2023-04-30T05:05:34;101422.19;;;8.96;100.00
66668;BME280;57205;51.438;-2.006;2023-04-30T05:08:00;101423.09;;;9.01;100.00
66668;BME280;57205;51.438;-2.006;2023-04-30T05:10:25;101425.19;;;9.11;100.00
66668;BME280;57205;51.438;-2.006;2023-04-30T05:12:51;101432.25;;;9.17;100.00
66668;BME280;57205;51.438;-2.006;2023-04-30T05:15:16;101424.34;;;9.22;100.00
66668;BME280;57205;51.438;-2.006;2023-04-30T05:17:42;101426.31;;;9.26;100.00
66668;BME280;57205;51.438;-2.006;2023-04-30T05:20:07;101424.81;;;9.30;100.00
66668;BME280;57205;51.438;-2.006;2023-04-30T05:22:33;101426.75;;;9.35;100.00
66668;BME280;57205;51.438;-2.006;2023-04-30T05:24:59;101423.50;;;9.33;100.00
66668;BME280;57205;51.438;-2.006;2023-04-30T05:27:24;101423.06;;;9.36;100.00
66668;BME280;57205;51.438;-2.006;2023-04-30T05:29:51;101422.31;;;9.40;100.00
66668;BME280;57205;51.438;-2.006;2023-04-30T05:32:16;101423.69;;;9.54;100.00
66668;BME280;57205;51.438;-2.006;2023-04-30T05:34:41;101418.06;;;9.67;100.00
66668;BME280;57205;51.438;-2.006;2023-04-30T05:37:07;101420.00;;;10.00;100.00
66668;BME280;57205;51.438;-2.006;2023-04-30T05:39:32;101424.69;;;10.54;100.00
66668;BME280;57205;51.438;-2.006;2023-04-30T05:41:58;101427.00;;;11.01;100.00
66668;BME280;57205;51.438;-2.006;2023-04-30T05:44:24;101426.41;;;11.37;100.00
66668;BME280;57205;51.438;-2.006;2023-04-30T05:46:50;101428.81;;;11.60;100.00
66668;BME280;57205;51.438;-2.006;2023-04-30T05:49:15;101430.94;;;11.58;100.00
66668;BME280;57205;51.438;-2.006;2023-04-30T05:51:41;101429.44;;;11.45;100.00
66668;BME280;57205;51.438;-2.006;2023-04-30T05:54:06;101434.75;;;11.40;100.00
66668;BME280;57205;51.438;-2.006;2023-04-30T05:56:32;101426.84;;;11.29;100.00
66668;BME280;57205;51.438;-2.006;2023-04-30T05:58:57;101427.81;;;11.23;100.00
66668;BME280;57205;51.438;-2.006;2023-04-30T06:01:23;101422.41;;;11.61;100.00
66668;BME280;57205;51.438;-2.006;2023-04-30T06:03:49;101419.66;;;12.04;100.00
66668;BME280;57205;51.438;-2.006;2023-04-30T06:06:14;101421.22;;;12.27;100.00
66668;BME280;57205;51.438;-2.006;2023-04-30T06:08:40;101423.63;;;12.28;100.00
66668;BME280;57205;51.438;-2.006;2023-04-30T06:11:08;101424.41;;;12.24;100.00
66668;BME280;57205;51.438;-2.006;2023-04-30T06:13:36;101431.13;;;12.26;100.00
66668;BME280;57205;51.438;-2.006;2023-04-30T06:16:01;101434.22;;;12.13;100.00
66668;BME280;57205;51.438;-2.006;2023-04-30T06:18:27;101432.22;;;11.99;100.00
66668;BME280;57205;51.438;-2.006;2023-04-30T06:20:52;101438.94;;;11.74;100.00
66668;BME280;57205;51.438;-2.006;2023-04-30T06:23:17;101438.06;;;11.47;100.00
66668;BME280;57205;51.438;-2.006;2023-04-30T06:25:43;101445.91;;;11.32;100.00
66668;BME280;57205;51.438;-2.006;2023-04-30T06:28:08;101443.59;;;11.19;100.00
66668;BME280;57205;51.438;-2.006;2023-04-30T06:30:36;101444.91;;;11.00;100.00
66668;BME280;57205;51.438;-2.006;2023-04-30T06:33:01;101445.25;;;10.87;100.00
66668;BME280;57205;51.438;-2.006;2023-04-30T06:35:27;101438.81;;;10.83;100.00
66668;BME280;57205;51.438;-2.006;2023-04-30T06:37:52;101450.56;;;10.82;100.00
66668;BME280;57205;51.438;-2.006;2023-04-30T06:40:18;101452.94;;;11.00;100.00
66668;BME280;57205;51.438;-2.006;2023-04-30T06:42:45;101460.41;;;11.15;100.00
66668;BME280;57205;51.438;-2.006;2023-04-30T06:45:11;101453.81;;;11.44;100.00
66668;BME280;57205;51.438;-2.006;2023-04-30T06:47:39;101453.94;;;11.54;100.00
66668;BME280;57205;51.438;-2.006;2023-04-30T06:50:07;101461.28;;;11.63;100.00
66668;BME280;57205;51.438;-2.006;2023-04-30T06:52:33;101463.56;;;11.71;100.00
66668;BME280;57205;51.438;-2.006;2023-04-30T06:54:58;101463.81;;;11.70;100.00
66668;BME280;57205;51.438;-2.006;2023-04-30T06:57:23;101458.50;;;11.75;100.00
66668;BME280;57205;51.438;-2.006;2023-04-30T06:59:49;101459.59;;;11.74;100.00
66668;BME280;57205;51.438;-2.006;2023-04-30T07:02:15;101457.47;;;11.76;100.00
66668;BME280;57205;51.438;-2.006;2023-04-30T07:04:40;101453.09;;;11.70;100.00
66668;BME280;57205;51.438;-2.006;2023-04-30T07:07:06;101447.44;;;11.66;100.00
66668;BME280;57205;51.438;-2.006;2023-04-30T07:09:31;101457.09;;;11.67;100.00
66668;BME280;57205;51.438;-2.006;2023-04-30T07:11:57;101453.72;;;11.77;100.00
66668;BME280;57205;51.438;-2.006;2023-04-30T07:14:25;101465.03;;;11.84;100.00
66668;BME280;57205;51.438;-2.006;2023-04-30T07:16:51;101458.81;;;12.00;100.00
66668;BME280;57205;51.438;-2.006;2023-04-30T07:19:16;101457.03;;;12.11;100.00
66668;BME280;57205;51.438;-2.006;2023-04-30T07:21:42;101463.69;;;12.08;100.00
66668;BME280;57205;51.438;-2.006;2023-04-30T07:24:07;101463.22;;;12.11;100.00
66668;BME280;57205;51.438;-2.006;2023-04-30T07:26:33;101457.47;;;12.03;100.00
66668;BME280;57205;51.438;-2.006;2023-04-30T07:28:58;101455.59;;;12.03;100.00
66668;BME280;57205;51.438;-2.006;2023-04-30T07:31:24;101456.16;;;12.05;100.00
66668;BME280;57205;51.438;-2.006;2023-04-30T07:33:50;101451.34;;;12.07;100.00
66668;BME280;57205;51.438;-2.006;2023-04-30T07:36:16;101449.38;;;12.24;100.00
66668;BME280;57205;51.438;-2.006;2023-04-30T07:38:42;101452.25;;;12.44;100.00
66668;BME280;57205;51.438;-2.006;2023-04-30T07:41:07;101453.84;;;12.45;100.00
66668;BME280;57205;51.438;-2.006;2023-04-30T07:43:34;101446.22;;;12.32;100.00
66668;BME280;57205;51.438;-2.006;2023-04-30T07:46:00;101449.38;;;12.24;100.00
66668;BME280;57205;51.438;-2.006;2023-04-30T07:48:26;101459.84;;;12.26;100.00
66668;BME280;57205;51.438;-2.006;2023-04-30T07:50:51;101455.50;;;12.20;100.00
66668;BME280;57205;51.438;-2.006;2023-04-30T07:53:17;101453.00;;;12.13;100.00
66668;BME280;57205;51.438;-2.006;2023-04-30T07:55:42;101447.00;;;12.01;100.00
66668;BME280;57205;51.438;-2.006;2023-04-30T07:58:08;101451.34;;;12.07;100.00
66668;BME280;57205;51.438;-2.006;2023-04-30T08:00:33;101443.91;;;12.14;100.00
66668;BME280;57205;51.438;-2.006;2023-04-30T08:02:59;101440.09;;;12.10;100.00
66668;BME280;57205;51.438;-2.006;2023-04-30T08:05:25;101450.88;;;12.15;100.00
66668;BME280;57205;51.438;-2.006;2023-04-30T08:07:51;101443.34;;;12.12;100.00
66668;BME280;57205;51.438;-2.006;2023-04-30T08:10:17;101446.75;;;12.03;100.00
66668;BME280;57205;51.438;-2.006;2023-04-30T08:12:42;101441.66;;;12.06;100.00
66668;BME280;57205;51.438;-2.006;2023-04-30T08:15:08;101447.16;;;12.16;100.00
66668;BME280;57205;51.438;-2.006;2023-04-30T08:17:34;101446.34;;;12.16;100.00
66668;BME280;57205;51.438;-2.006;2023-04-30T08:20:00;101442.34;;;12.18;100.00
66668;BME280;57205;51.438;-2.006;2023-04-30T08:22:26;101443.75;;;12.26;100.00
66668;BME280;57205;51.438;-2.006;2023-04-30T08:24:51;101435.59;;;12.47;100.00
66668;BME280;57205;51.438;-2.006;2023-04-30T08:27:17;101427.03;;;12.50;100.00
66668;BME280;57205;51.438;-2.006;2023-04-30T08:29:42;101428.75;;;12.61;100.00
66668;BME280;57205;51.438;-2.006;2023-04-30T08:32:08;101428.03;;;12.76;100.00
66668;BME280;57205;51.438;-2.006;2023-04-30T08:34:34;101425.47;;;12.91;100.00
66668;BME280;57205;51.438;-2.006;2023-04-30T08:36:59;101433.75;;;12.90;100.00
66668;BME280;57205;51.438;-2.006;2023-04-30T08:39:25;101426.09;;;13.03;100.00
66668;BME280;57205;51.438;-2.006;2023-04-30T08:41:54;101437.38;;;13.05;100.00
66668;BME280;57205;51.438;-2.006;2023-04-30T08:44:25;101437.97;;;13.17;100.00
66668;BME280;57205;51.438;-2.006;2023-04-30T08:46:53;101438.84;;;13.28;100.00
66668;BME280;57205;51.438;-2.006;2023-04-30T08:49:20;101433.97;;;13.25;100.00
66668;BME280;57205;51.438;-2.006;2023-04-30T08:51:46;101427.56;;;13.36;100.00
66668;BME280;57205;51.438;-2.006;2023-04-30T08:54:12;101418.56;;;13.67;100.00
66668;BME280;57205;51.438;-2.006;2023-04-30T08:56:39;101422.38;;;13.91;100.00
66668;BME280;57205;51.438;-2.006;2023-04-30T08:59:05;101423.75;;;14.04;100.00
66668;BME280;57205;51.438;-2.006;2023-04-30T09:01:33;101420.00;;;14.10;100.00
66668;BME280;57205;51.438;-2.006;2023-04-30T09:03:59;101426.44;;;14.04;100.00
66668;BME280;57205;51.438;-2.006;2023-04-30T09:06:27;101424.53;;;13.89;100.00
66668;BME280;57205;51.438;-2.006;2023-04-30T09:08:52;101425.09;;;13.91;100.00
66668;BME280;57205;51.438;-2.006;2023-04-30T09:11:30;101426.38;;;13.79;100.00
66668;BME280;57205;51.438;-2.006;2023-04-30T09:14:00;101415.88;;;13.77;100.00
66668;BME280;57205;51.438;-2.006;2023-04-30T09:16:29;101429.38;;;13.82;100.00
66668;BME280;57205;51.438;-2.006;2023-04-30T09:19:09;101422.34;;;13.71;100.00
66668;BME280;57205;51.438;-2.006;2023-04-30T09:21:35;101430.91;;;13.63;100.00
66668;BME280;57205;51.438;-2.006;2023-04-30T09:24:02;101429.78;;;13.49;100.00
66668;BME280;57205;51.438;-2.006;2023-04-30T09:26:33;101434.88;;;13.40;100.00
66668;BME280;57205;51.438;-2.006;2023-04-30T09:29:00;101434.81;;;13.30;100.00
66668;BME280;57205;51.438;-2.006;2023-04-30T09:31:26;101436.72;;;13.30;100.00
66668;BME280;57205;51.438;-2.006;2023-04-30T09:33:52;101436.19;;;13.33;100.00
66668;BME280;57205;51.438;-2.006;2023-04-30T09:36:18;101436.75;;;13.40;100.00
66668;BME280;57205;51.438;-2.006;2023-04-30T09:38:44;101429.22;;;13.42;100.00
66668;BME280;57205;51.438;-2.006;2023-04-30T09:41:27;101426.56;;;13.47;100.00
66668;BME280;57205;51.438;-2.006;2023-04-30T09:43:56;101430.31;;;13.46;100.00
66668;BME280;57205;51.438;-2.006;2023-04-30T09:46:30;101431.63;;;13.43;100.00
66668;BME280;57205;51.438;-2.006;2023-04-30T09:49:03;101432.78;;;13.57;100.00
66668;BME280;57205;51.438;-2.006;2023-04-30T09:51:28;101440.03;;;13.57;100.00
66668;BME280;57205;51.438;-2.006;2023-04-30T09:53:55;101444.38;;;13.58;100.00
66668;BME280;57205;51.438;-2.006;2023-04-30T09:56:24;101441.09;;;13.51;100.00
66668;BME280;57205;51.438;-2.006;2023-04-30T09:58:53;101443.53;;;13.52;100.00
66668;BME280;57205;51.438;-2.006;2023-04-30T10:01:20;101438.41;;;13.51;100.00
66668;BME280;57205;51.438;-2.006;2023-04-30T10:03:47;101442.97;;;13.50;100.00
66668;BME280;57205;51.438;-2.006;2023-04-30T10:06:14;101444.84;;;13.45;100.00
66668;BME280;57205;51.438;-2.006;2023-04-30T10:08:46;101444.81;;;13.40;100.00
66668;BME280;57205;51.438;-2.006;2023-04-30T10:11:20;101445.56;;;13.30;100.00
66668;BME280;57205;51.438;-2.006;2023-04-30T10:13:59;101441.53;;;13.28;100.00
66668;BME280;57205;51.438;-2.006;2023-04-30T10:16:50;101439.91;;;13.27;100.00
66668;BME280;57205;51.438;-2.006;2023-04-30T10:19:19;101433.81;;;13.41;100.00
66668;BME280;57205;51.438;-2.006;2023-04-30T10:21:46;101435.97;;;13.44;100.00
66668;BME280;57205;51.438;-2.006;2023-04-30T10:24:13;101441.13;;;13.61;100.00
66668;BME280;57205;51.438;-2.006;2023-04-30T10:26:39;101433.06;;;13.61;100.00
66668;BME280;57205;51.438;-2.006;2023-04-30T10:29:06;101432.53;;;13.59;100.00
66668;BME280;57205;51.438;-2.006;2023-04-30T10:31:32;101434.94;;;13.60;100.00
66668;BME280;57205;51.438;-2.006;2023-04-30T10:37:15;101424.00;;;13.87;100.00
66668;BME280;57205;51.438;-2.006;2023-04-30T10:39:43;101413.78;;;13.94;100.00
66668;BME280;57205;51.438;-2.006;2023-04-30T10:42:09;101414.31;;;13.91;100.00
66668;BME280;57205;51.438;-2.006;2023-04-30T10:44:36;101412.72;;;14.00;100.00
66668;BME280;57205;51.438;-2.006;2023-04-30T10:47:02;101412.44;;;14.07;100.00
66668;BME280;57205;51.438;-2.006;2023-04-30T10:49:29;101414.59;;;14.05;100.00
66668;BME280;57205;51.438;-2.006;2023-04-30T10:51:58;101404.66;;;14.00;100.00
66668;BME280;57205;51.438;-2.006;2023-04-30T10:54:34;101403.81;;;14.05;100.00
66668;BME280;57205;51.438;-2.006;2023-04-30T10:57:21;101406.25;;;14.01;100.00
66668;BME280;57205;51.438;-2.006;2023-04-30T11:02:15;101406.25;;;14.01;100.00
66668;BME280;57205;51.438;-2.006;2023-04-30T11:07:33;101407.06;;;13.97;100.00
66668;BME280;57205;51.438;-2.006;2023-04-30T11:10:00;101401.13;;;13.95;100.00
66668;BME280;57205;51.438;-2.006;2023-04-30T11:12:26;101394.16;;;14.04;100.00
66668;BME280;57205;51.438;-2.006;2023-04-30T11:15:20;101400.88;;;14.01;100.00
66668;BME280;57205;51.438;-2.006;2023-04-30T11:17:46;101399.00;;;14.02;100.00
66668;BME280;57205;51.438;-2.006;2023-04-30T11:20:13;101400.63;;;14.08;100.00
66668;BME280;57205;51.438;-2.006;2023-04-30T11:22:43;101396.31;;;14.12;100.00
66668;BME280;57205;51.438;-2.006;2023-04-30T11:25:14;101396.63;;;14.30;100.00
66668;BME280;57205;51.438;-2.006;2023-04-30T11:27:43;101397.97;;;14.43;100.00
66668;BME280;57205;51.438;-2.006;2023-04-30T11:30:11;101393.94;;;14.35;100.00
66668;BME280;57205;51.438;-2.006;2023-04-30T11:32:42;101398.22;;;14.31;100.00
66668;BME280;57205;51.438;-2.006;2023-04-30T11:35:10;101388.00;;;14.28;100.00
66668;BME280;57205;51.438;-2.006;2023-04-30T11:37:39;101383.13;;;14.15;100.00
66668;BME280;57205;51.438;-2.006;2023-04-30T11:40:06;101397.13;;;14.02;100.00
66668;BME280;57205;51.438;-2.006;2023-04-30T11:42:33;101389.03;;;13.92;100.00
66668;BME280;57205;51.438;-2.006;2023-04-30T11:45:05;101390.34;;;13.80;100.00
66668;BME280;57205;51.438;-2.006;2023-04-30T11:47:42;101390.06;;;13.71;100.00
66668;BME280;57205;51.438;-2.006;2023-04-30T11:50:09;101392.22;;;13.69;100.00
66668;BME280;57205;51.438;-2.006;2023-04-30T11:52:34;101386.84;;;13.74;100.00
66668;BME280;57205;51.438;-2.006;2023-04-30T11:55:04;101389.00;;;13.77;100.00
66668;BME280;57205;51.438;-2.006;2023-04-30T11:57:38;101390.91;;;13.87;100.00
66668;BME280;57205;51.438;-2.006;2023-04-30T12:00:10;101396.53;;;13.90;100.00
66668;BME280;57205;51.438;-2.006;2023-04-30T12:02:37;101393.84;;;13.85;100.00
66668;BME280;57205;51.438;-2.006;2023-04-30T12:05:04;101398.16;;;13.86;100.00
66668;BME280;57205;51.438;-2.006;2023-04-30T12:07:29;101396.53;;;13.80;100.00
66668;BME280;57205;51.438;-2.006;2023-04-30T12:09:55;101396.00;;;13.78;100.00
66668;BME280;57205;51.438;-2.006;2023-04-30T12:12:28;101390.63;;;13.78;100.00
66668;BME280;57205;51.438;-2.006;2023-04-30T12:14:54;101387.38;;;13.86;100.00
66668;BME280;57205;51.438;-2.006;2023-04-30T12:17:33;101385.50;;;13.77;100.00
66668;BME280;57205;51.438;-2.006;2023-04-30T12:19:59;101386.03;;;13.79;100.00
66668;BME280;57205;51.438;-2.006;2023-04-30T12:22:25;101389.78;;;13.67;100.00
66668;BME280;57205;51.438;-2.006;2023-04-30T12:24:51;101390.31;;;13.59;100.00
66668;BME280;57205;51.438;-2.006;2023-04-30T12:27:16;101387.56;;;13.49;100.00
66668;BME280;57205;51.438;-2.006;2023-04-30T12:29:45;101383.25;;;13.43;100.00
66668;BME280;57205;51.438;-2.006;2023-04-30T12:32:12;101392.41;;;13.37;100.00
66668;BME280;57205;51.438;-2.006;2023-04-30T12:34:42;101385.16;;;13.43;100.00
66668;BME280;57205;51.438;-2.006;2023-04-30T12:37:08;101385.72;;;13.50;100.00
66668;BME280;57205;51.438;-2.006;2023-04-30T12:39:34;101374.44;;;13.63;100.00
66668;BME280;57205;51.438;-2.006;2023-04-30T12:42:02;101376.09;;;13.79;100.00
66668;BME280;57205;51.438;-2.006;2023-04-30T12:44:28;101375.03;;;13.85;100.00
66668;BME280;57205;51.438;-2.006;2023-04-30T12:46:55;101372.88;;;13.97;100.00
66668;BME280;57205;51.438;-2.006;2023-04-30T12:49:28;101365.38;;;14.04;100.00
66668;BME280;57205;51.438;-2.006;2023-04-30T12:52:05;101375.06;;;14.15;100.00
66668;BME280;57205;51.438;-2.006;2023-04-30T12:54:35;101374.50;;;14.18;100.00
66668;BME280;57205;51.438;-2.006;2023-04-30T12:57:10;101368.59;;;14.36;100.00